Time;durP1;ratioP1;P1;durP2;ratioP2;P2;SDS_P1;SDS_P2;PMS_P1;PMS_P2;Temp;Humidity;BMP_temperature;BMP_pressure;BME280_temperature;BME280_humidity;BME280_pressure;Samples;Min_cycle;Max_cycle;Signal;HPM_P1;HPM_P2
2023/04/10 00:00:06;;;;;;;105.45;94.30;;;;;;;4.99;100.00;101455.25;6228796;23;20027;-94
2023/04/10 00:02:33;;;;;;;98.00;84.45;;;;;;;5.11;100.00;101460.28;6228997;23;20071;-96
2023/04/10 00:05:04;;;;;;;100.32;89.90;;;;;;;5.18;100.00;101454.25;6228679;23;20027;-95
2023/04/10 00:07:32;;;;;;;90.97;81.35;;;;;;;5.07;100.00;101449.22;6229412;23;20039;-94
2023/04/10 00:09:59;;;;;;;86.07;71.15;;;;;;;5.03;100.00;101448.69;6229175;23;20023;-94
2023/04/10 00:12:26;;;;;;;82.30;73.38;;;;;;;5.10;100.00;101446.28;6228840;23;20036;-95
2023/04/10 00:14:53;;;;;;;96.32;86.53;;;;;;;5.13;100.00;101442.53;6227903;23;20076;-94
2023/04/10 00:17:22;;;;;;;102.38;90.47;;;;;;;5.05;100.00;101436.22;6227587;23;20016;-94
2023/04/10 00:19:49;;;;;;;93.00;80.60;;;;;;;5.04;100.00;101439.00;6228315;23;20021;-95
2023/04/10 00:22:16;;;;;;;85.85;74.43;;;;;;;5.03;100.00;101432.91;6229187;23;20036;-95
2023/04/10 00:24:43;;;;;;;93.43;83.47;;;;;;;5.17;100.00;101435.97;6227884;23;20027;-94
2023/04/10 00:27:13;;;;;;;116.95;90.13;;;;;;;4.84;100.00;101425.16;6228188;23;20020;-94
2023/04/10 00:29:41;;;;;;;191.55;106.45;;;;;;;5.19;100.00;101426.09;6226323;23;20027;-93
2023/04/10 00:32:09;;;;;;;91.65;81.90;;;;;;;5.11;100.00;101426.84;6228881;23;20047;-94
2023/04/10 00:34:37;;;;;;;103.18;92.38;;;;;;;4.83;100.00;101420.88;6229052;23;20036;-94
2023/04/10 00:37:05;;;;;;;96.25;85.93;;;;;;;4.90;100.00;101429.84;6228572;23;20017;-95
2023/04/10 00:39:32;;;;;;;131.02;90.65;;;;;;;5.11;100.00;101428.66;6228722;23;20020;-96
2023/04/10 00:42:00;;;;;;;173.70;113.85;;;;;;;5.16;100.00;101421.97;6229367;23;20021;-94
2023/04/10 00:44:27;;;;;;;119.80;102.22;;;;;;;5.02;100.00;101420.72;6229053;23;20031;-95
2023/04/10 00:46:54;;;;;;;113.05;86.38;;;;;;;4.93;100.00;101418.16;6228843;23;20039;-94
2023/04/10 00:49:21;;;;;;;132.88;97.47;;;;;;;5.09;100.00;101420.94;6229099;23;20027;-95
2023/04/10 00:51:51;;;;;;;105.82;86.18;;;;;;;4.82;100.00;101422.69;6228170;23;20076;-94
2023/04/10 00:54:18;;;;;;;112.68;89.60;;;;;;;5.03;100.00;101417.09;6228104;23;20079;-94
2023/04/10 00:56:46;;;;;;;138.45;97.13;;;;;;;4.95;100.00;101406.50;6228460;23;20020;-96
2023/04/10 00:59:15;;;;;;;144.35;104.57;;;;;;;5.04;100.00;101415.28;6227558;23;20005;-94
2023/04/10 01:01:42;;;;;;;122.78;101.82;;;;;;;5.10;100.00;101414.69;6229544;23;20047;-94
2023/04/10 01:04:11;;;;;;;110.53;93.03;;;;;;;5.10;100.00;101408.59;6228612;23;20017;-95
2023/04/10 01:06:53;;;;;;;119.57;107.05;;;;;;;5.07;100.00;101409.72;6228689;23;20013;-94
2023/04/10 01:09:38;;;;;;;108.40;97.20;;;;;;;5.15;100.00;101409.78;6228550;23;20016;-95
2023/04/10 01:12:16;;;;;;;123.93;111.97;;;;;;;4.93;100.00;101400.59;6228333;23;20020;-95
2023/04/10 01:14:50;;;;;;;110.13;98.60;;;;;;;4.98;100.00;101403.56;6228408;23;20076;-94
2023/04/10 01:17:21;;;;;;;103.45;92.85;;;;;;;4.83;100.00;101402.44;6227798;23;20072;-94
2023/04/10 01:20:06;;;;;;;110.82;98.78;;;;;;;4.93;100.00;101390.06;6228132;23;20027;-94
2023/04/10 01:22:40;;;;;;;103.65;92.70;;;;;;;4.97;100.00;101390.56;6228311;23;20039;-94
2023/04/10 01:25:40;;;;;;;100.97;90.47;;;;;;;4.94;100.00;101391.69;6228625;23;20100;-94
2023/04/10 01:28:35;;;;;;;104.22;93.40;;;;;;;4.95;100.00;101392.50;6228972;23;20068;-95
2023/04/10 01:31:06;;;;;;;97.00;87.15;;;;;;;4.90;100.00;101390.34;6217573;23;20021;-94
2023/04/10 01:33:40;;;;;;;113.18;102.25;;;;;;;5.00;100.00;101395.53;6227588;23;20035;-94
2023/04/10 01:36:10;;;;;;;122.13;110.78;;;;;;;4.70;100.00;101392.31;6227593;23;20020;-94
2023/04/10 01:38:42;;;;;;;135.82;120.90;;;;;;;4.92;100.00;101398.09;6228353;23;20043;-94
2023/04/10 01:41:10;;;;;;;134.57;118.45;;;;;;;4.97;100.00;101401.09;6228947;23;20020;-94
2023/04/10 01:43:41;;;;;;;118.00;105.70;;;;;;;5.02;100.00;101401.44;6227718;23;20020;-95
2023/04/10 01:46:12;;;;;;;102.78;92.40;;;;;;;5.05;100.00;101403.78;6228617;23;20021;-94
2023/04/10 01:48:41;;;;;;;97.88;87.93;;;;;;;5.06;100.00;101408.09;6229429;23;20024;-94
2023/04/10 01:51:09;;;;;;;118.15;105.82;;;;;;;4.90;100.00;101400.88;6229242;23;20021;-95
2023/04/10 01:53:39;;;;;;;119.18;106.55;;;;;;;4.93;100.00;101394.47;6198239;23;20082;-96
2023/04/10 01:56:08;;;;;;;112.82;90.72;;;;;;;5.07;100.00;101396.56;6198282;23;20101;-93
2023/04/10 01:58:35;;;;;;;112.63;93.05;;;;;;;5.02;100.00;101402.31;6198893;23;20100;-96
2023/04/10 02:01:02;;;;;;;336.08;159.32;;;;;;;5.05;100.00;101402.00;6198718;23;20032;-94
2023/04/10 02:03:32;;;;;;;238.75;141.23;;;;;;;5.20;100.00;101396.16;6198343;23;20108;-94
2023/04/10 02:06:13;;;;;;;247.15;142.35;;;;;;;5.09;100.00;101402.50;6198970;23;20028;-93
2023/04/10 02:08:48;;;;;;;243.63;136.93;;;;;;;5.11;100.00;101404.97;6197806;23;20021;-94
2023/04/10 02:11:23;;;;;;;257.48;139.98;;;;;;;5.12;100.00;101396.13;6198566;23;20021;-94
2023/04/10 02:13:54;;;;;;;177.35;118.15;;;;;;;5.04;100.00;101397.69;6198931;23;20032;-95
2023/04/10 02:16:22;;;;;;;171.63;122.95;;;;;;;5.25;100.00;101393.88;6198687;23;20040;-94
2023/04/10 02:18:52;;;;;;;144.60;104.10;;;;;;;5.24;100.00;101394.88;6199071;23;20021;-95
2023/04/10 02:21:20;;;;;;;133.00;99.60;;;;;;;5.18;100.00;101385.78;6199541;23;20045;-94
2023/04/10 02:23:48;;;;;;;130.73;100.30;;;;;;;5.11;100.00;101390.00;6198722;23;20028;-95
2023/04/10 02:26:15;;;;;;;127.30;92.93;;;;;;;4.92;100.00;101383.13;6198514;23;20040;-93
2023/04/10 02:28:42;;;;;;;109.45;90.10;;;;;;;4.88;100.00;101386.22;6199069;23;20032;-95
2023/04/10 02:31:09;;;;;;;111.55;98.07;;;;;;;4.89;100.00;101380.78;6199265;23;20104;-94
2023/04/10 02:33:36;;;;;;;106.95;84.10;;;;;;;4.60;100.00;101381.03;6197897;23;20036;-94
2023/04/10 02:36:05;;;;;;;109.80;85.15;;;;;;;4.70;100.00;101381.78;6197968;23;20047;-95
2023/04/10 02:38:32;;;;;;;101.80;84.15;;;;;;;4.75;100.00;101383.94;6197856;23;20021;-94
2023/04/10 02:40:59;;;;;;;96.90;77.45;;;;;;;4.67;100.00;101376.81;6198833;23;20047;-94
2023/04/10 02:43:29;;;;;;;112.05;92.75;;;;;;;4.75;100.00;101381.31;6198168;23;20040;-94
2023/04/10 02:45:56;;;;;;;98.28;78.63;;;;;;;4.69;100.00;101384.56;6197424;23;20025;-93
2023/04/10 02:48:23;;;;;;;90.78;72.65;;;;;;;4.54;100.00;101371.94;6199207;23;20037;-95
2023/04/10 02:50:55;;;;;;;93.78;76.35;;;;;;;4.64;100.00;101379.75;6200364;23;20264;-94
2023/04/10 02:53:26;;;;;;;83.82;71.00;;;;;;;4.75;100.00;101376.91;6228073;23;20108;-94
2023/04/10 02:55:53;;;;;;;97.65;78.38;;;;;;;4.63;100.00;101379.91;6231783;23;20036;-94
2023/04/10 02:58:21;;;;;;;104.75;85.28;;;;;;;4.64;100.00;101378.94;6230449;23;20054;-94
2023/04/10 03:00:49;;;;;;;99.13;88.18;;;;;;;4.55;100.00;101378.84;6230588;23;20027;-94
2023/04/10 03:03:17;;;;;;;85.03;72.90;;;;;;;4.47;100.00;101380.56;6231784;23;20083;-94
2023/04/10 03:05:45;;;;;;;82.50;66.75;;;;;;;4.57;100.00;101387.44;6231348;23;20036;-94
2023/04/10 03:08:13;;;;;;;80.40;67.93;;;;;;;4.41;100.00;101386.44;6230607;23;20024;-94
2023/04/10 03:10:43;;;;;;;79.32;68.22;;;;;;;4.49;100.00;101384.72;6231292;23;20031;-94
2023/04/10 03:13:10;;;;;;;83.70;71.28;;;;;;;4.56;100.00;101384.94;6230754;23;20076;-94
2023/04/10 03:15:39;;;;;;;79.40;70.90;;;;;;;4.50;100.00;101377.66;6230840;23;20020;-95
2023/04/10 03:18:08;;;;;;;85.43;73.05;;;;;;;4.42;100.00;101378.41;6230716;23;20020;-94
2023/04/10 03:20:36;;;;;;;83.53;66.85;;;;;;;4.33;100.00;101397.72;6230269;23;20020;-94
2023/04/10 03:23:03;;;;;;;82.15;71.13;;;;;;;4.55;100.00;101386.75;6231290;23;20095;-94
2023/04/10 03:25:31;;;;;;;79.75;68.00;;;;;;;4.62;100.00;101396.66;6231631;23;20028;-94
2023/04/10 03:28:00;;;;;;;90.00;80.55;;;;;;;4.67;100.00;101392.63;6230643;23;20017;-94
2023/04/10 03:30:34;;;;;;;84.72;74.28;;;;;;;4.51;100.00;101393.28;6231084;23;20020;-94
2023/04/10 03:33:01;;;;;;;83.38;74.32;;;;;;;4.65;100.00;101393.72;6231523;23;20048;-95
2023/04/10 03:35:30;;;;;;;81.82;73.05;;;;;;;4.81;100.00;101396.50;6230341;23;20068;-95
2023/04/10 03:37:57;;;;;;;88.03;78.55;;;;;;;4.78;100.00;101399.44;6230870;23;20529;-95
2023/04/10 03:40:24;;;;;;;79.30;70.15;;;;;;;4.69;100.00;101406.47;6230083;23;20039;-94
2023/04/10 03:42:52;;;;;;;85.90;76.60;;;;;;;4.64;100.00;101405.25;6230789;23;20038;-94
2023/04/10 03:45:22;;;;;;;86.57;77.10;;;;;;;4.83;100.00;101402.44;6230289;23;20024;-95
2023/04/10 03:47:49;;;;;;;82.60;71.60;;;;;;;4.47;100.00;101406.88;6229830;23;20043;-95
2023/04/10 03:53:24;;;;;;;109.72;95.10;;;;;;;4.77;100.00;101409.13;6240660;23;20386;-94
2023/04/10 03:56:00;;;;;;;95.95;85.70;;;;;;;4.87;100.00;101409.09;6221106;23;20032;-96
2023/04/10 04:01:36;;;;;;;87.70;74.05;;;;;;;4.74;100.00;101412.06;6239644;23;20025;-94
2023/04/10 04:04:03;;;;;;;93.40;82.70;;;;;;;4.77;100.00;101406.50;6230915;23;20023;-94
2023/04/10 04:06:31;;;;;;;92.03;82.00;;;;;;;4.92;100.00;101408.63;6230355;23;20021;-95
2023/04/10 04:08:58;;;;;;;89.75;77.78;;;;;;;4.62;100.00;101407.19;6229660;23;20019;-94
2023/04/10 04:14:37;;;;;;;97.55;82.85;;;;;;;4.74;100.00;101408.63;6222845;23;20093;-94
2023/04/10 04:17:06;;;;;;;97.60;87.47;;;;;;;4.73;100.00;101413.06;6228234;23;20039;-95
2023/04/10 04:19:51;;;;;;;96.53;83.05;;;;;;;4.58;100.00;101418.03;6228831;23;20489;-94
2023/04/10 04:22:18;;;;;;;93.78;79.95;;;;;;;4.46;100.00;101416.59;6230146;23;20024;-95
2023/04/10 04:24:46;;;;;;;98.78;82.43;;;;;;;4.58;100.00;101414.56;6228132;23;20068;-95
2023/04/10 04:27:14;;;;;;;92.38;82.03;;;;;;;4.41;100.00;101413.56;6229567;23;20017;-94
2023/04/10 04:29:41;;;;;;;95.65;79.53;;;;;;;4.48;100.00;101416.41;6230886;23;20020;-95
2023/04/10 04:32:10;;;;;;;97.65;85.70;;;;;;;4.55;100.00;101417.50;6229770;23;20102;-95
2023/04/10 04:44:26;;;;;;;89.55;77.80;;;;;;;4.93;100.00;101420.78;6183375;23;20024;-95
2023/04/10 04:47:56;;;;;;;94.60;84.53;;;;;;;5.10;100.00;101424.41;6226361;23;20023;-94
2023/04/10 04:57:31;;;;;;;93.15;82.47;;;;;;;5.61;100.00;101415.69;6253859;23;20027;-94
2023/04/10 05:03:11;;;;;;;104.83;93.80;;;;;;;6.16;100.00;101419.75;6228079;23;20024;-95
2023/04/10 05:06:36;;;;;;;106.00;95.35;;;;;;;6.25;100.00;101418.78;6259243;23;20030;-94
2023/04/10 05:09:04;;;;;;;103.03;91.85;;;;;;;6.26;100.00;101415.16;6244902;23;20020;-94
2023/04/10 05:11:31;;;;;;;102.93;91.97;;;;;;;6.43;100.00;101419.50;6258443;23;20027;-94
2023/04/10 05:13:59;;;;;;;113.97;101.25;;;;;;;6.36;100.00;101407.94;6259908;23;20039;-94
2023/04/10 05:16:28;;;;;;;111.90;100.53;;;;;;;6.78;100.00;101414.13;6259312;23;20036;-94
2023/04/10 05:18:55;;;;;;;117.90;105.97;;;;;;;6.88;100.00;101412.13;6257180;23;20039;-93
2023/04/10 05:21:22;;;;;;;111.82;100.68;;;;;;;6.96;100.00;101420.06;6249608;23;20024;-95
2023/04/10 05:23:49;;;;;;;111.63;99.97;;;;;;;7.12;100.00;101419.25;6250822;23;20515;-94
2023/04/10 05:26:18;;;;;;;106.22;95.53;;;;;;;7.28;100.00;101421.03;6250602;23;20638;-94
2023/04/10 05:28:46;;;;;;;115.32;103.57;;;;;;;7.29;100.00;101426.16;6250895;23;20019;-94
2023/04/10 05:31:13;;;;;;;114.47;103.22;;;;;;;7.30;100.00;101425.16;6251658;23;20020;-93
2023/04/10 05:33:40;;;;;;;101.25;91.25;;;;;;;7.26;100.00;101431.78;6249268;23;20027;-95
2023/04/10 05:36:08;;;;;;;92.40;83.05;;;;;;;7.31;100.00;101429.44;6249836;23;20081;-94
2023/04/10 05:38:39;;;;;;;98.47;88.47;;;;;;;7.47;100.00;101435.69;6250598;23;20095;-95
2023/04/10 05:41:06;;;;;;;90.88;81.30;;;;;;;7.68;100.00;101430.69;6251585;23;20072;-95
2023/04/10 05:43:35;;;;;;;94.53;84.95;;;;;;;8.06;100.00;101430.09;6252943;23;20046;-94
2023/04/10 05:46:02;;;;;;;103.22;92.82;;;;;;;8.66;100.00;101418.88;6252094;23;20016;-94
2023/04/10 05:48:29;;;;;;;83.68;74.45;;;;;;;8.70;100.00;101426.28;6251525;23;20095;-94
2023/04/10 05:50:56;;;;;;;74.57;66.57;;;;;;;9.04;100.00;101417.06;6254437;23;20027;-94
2023/04/10 05:53:30;;;;;;;75.40;67.00;;;;;;;9.06;100.00;101422.22;6253174;23;20029;-94
2023/04/10 05:55:58;;;;;;;71.30;62.63;;;;;;;9.13;100.00;101413.34;6252879;23;20020;-94
2023/04/10 05:58:28;;;;;;;67.50;60.47;;;;;;;9.35;100.00;101418.81;6251274;23;20012;-94
2023/04/10 06:00:57;;;;;;;70.90;59.17;;;;;;;9.52;100.00;101419.47;6254007;23;20020;-95
2023/04/10 06:03:26;;;;;;;66.60;56.20;;;;;;;9.33;100.00;101416.34;6251573;23;20075;-95
2023/04/10 06:05:53;;;;;;;60.05;52.58;;;;;;;9.60;100.00;101414.06;6249119;23;20100;-94
2023/04/10 06:08:21;;;;;;;61.38;53.92;;;;;;;9.55;100.00;101419.91;6249408;23;20013;-92
2023/04/10 06:10:48;;;;;;;62.25;54.03;;;;;;;9.53;100.00;101423.75;6250956;23;20023;-95
2023/04/10 06:13:16;;;;;;;62.97;56.10;;;;;;;9.60;100.00;101417.56;6252685;23;20044;-94
2023/04/10 06:15:43;;;;;;;55.22;49.28;;;;;;;9.83;100.00;101421.94;6251776;23;20027;-94
2023/04/10 06:18:11;;;;;;;59.85;52.75;;;;;;;9.53;100.00;101419.28;6249183;23;20023;-94
2023/04/10 06:20:41;;;;;;;62.83;55.92;;;;;;;9.60;100.00;101420.19;6253569;23;20095;-94
2023/04/10 06:23:12;;;;;;;61.83;55.20;;;;;;;9.74;100.00;101421.22;6254386;23;20095;-94
2023/04/10 06:25:39;;;;;;;56.58;50.53;;;;;;;9.81;100.00;101423.97;6250850;23;20024;-94
2023/04/10 06:28:06;;;;;;;60.75;49.63;;;;;;;9.84;100.00;101423.59;6250474;23;20360;-94
2023/04/10 06:30:36;;;;;;;56.08;47.35;;;;;;;9.74;100.00;101426.53;6251671;23;20020;-95
2023/04/10 06:33:03;;;;;;;56.72;50.58;;;;;;;9.66;100.00;101439.06;6252073;23;20027;-93
2023/04/10 06:35:31;;;;;;;56.33;47.58;;;;;;;9.67;100.00;101422.13;6251538;23;20020;-94
2023/04/10 06:38:02;;;;;;;56.28;48.10;;;;;;;9.70;100.00;101424.41;6252424;23;20012;-94
2023/04/10 06:40:29;;;;;;;58.05;49.30;;;;;;;10.16;100.00;101425.00;6253857;23;20024;-95
2023/04/10 06:43:00;;;;;;;62.30;51.72;;;;;;;10.29;100.00;101425.22;6255871;23;20020;-94
2023/04/10 06:45:33;;;;;;;54.75;45.22;;;;;;;10.46;100.00;101423.13;6255532;23;20238;-94
2023/04/10 06:48:00;;;;;;;51.42;45.03;;;;;;;10.47;100.00;101419.50;6253196;23;20022;-94
2023/04/10 06:50:28;;;;;;;47.53;41.22;;;;;;;10.53;100.00;101416.09;6253654;23;20095;-94
2023/04/10 06:52:58;;;;;;;57.05;45.58;;;;;;;10.58;100.00;101426.13;6253843;23;20028;-95
2023/04/10 06:55:27;;;;;;;47.47;42.30;;;;;;;10.61;100.00;101420.44;6256006;23;20027;-94
2023/04/10 06:57:55;;;;;;;55.30;45.85;;;;;;;10.49;100.00;101425.41;6252643;23;20043;-94
2023/04/10 07:00:23;;;;;;;53.40;47.70;;;;;;;10.74;100.00;101423.25;6255954;23;20022;-94
2023/04/10 07:02:50;;;;;;;53.67;47.55;;;;;;;10.74;100.00;101422.41;6254407;23;20020;-95
2023/04/10 07:05:17;;;;;;;51.67;44.75;;;;;;;10.64;100.00;101427.22;6253676;23;20020;-94
2023/04/10 07:07:46;;;;;;;52.33;46.72;;;;;;;10.98;100.00;101422.03;6255267;23;20076;-93
2023/04/10 07:10:14;;;;;;;52.10;46.13;;;;;;;10.94;100.00;101426.06;6246864;23;20049;-94
2023/04/10 07:12:41;;;;;;;52.40;43.42;;;;;;;11.04;100.00;101420.41;6252915;23;20023;-93
2023/04/10 07:15:11;;;;;;;50.17;44.75;;;;;;;10.89;100.00;101423.19;6250600;23;20020;-94
2023/04/10 07:17:40;;;;;;;53.35;47.28;;;;;;;11.51;100.00;101420.78;6254336;23;20019;-93
2023/04/10 07:20:08;;;;;;;54.13;48.00;;;;;;;11.64;100.00;101432.31;6252039;23;20016;-94
2023/04/10 07:22:35;;;;;;;50.88;41.97;;;;;;;11.62;100.00;101430.91;6254959;23;20548;-93
2023/04/10 07:25:02;;;;;;;42.90;37.67;;;;;;;11.63;100.00;101422.69;6253546;23;20095;-94
2023/04/10 07:27:35;;;;;;;46.65;41.45;;;;;;;12.10;100.00;101423.81;6253265;23;20020;-94
2023/04/10 07:30:02;;;;;;;45.55;38.92;;;;;;;12.05;100.00;101423.56;6252290;23;20031;-94
2023/04/10 07:32:29;;;;;;;42.85;37.38;;;;;;;12.13;100.00;101412.75;6252563;23;20103;-94
2023/04/10 07:34:56;;;;;;;43.55;38.85;;;;;;;12.36;100.00;101415.06;6251605;23;20043;-95
2023/04/10 07:37:23;;;;;;;40.65;36.33;;;;;;;12.33;100.00;101412.81;6251364;23;20107;-95
2023/04/10 07:39:50;;;;;;;39.13;34.97;;;;;;;12.25;100.00;101417.47;6249380;23;20083;-93
2023/04/10 07:42:17;;;;;;;40.80;36.60;;;;;;;12.31;100.00;101403.38;6250823;23;20537;-93
2023/04/10 07:44:46;;;;;;;43.55;38.47;;;;;;;12.72;100.00;101403.25;6250222;23;20030;-94
2023/04/10 07:47:13;;;;;;;43.63;38.95;;;;;;;12.54;100.00;101405.69;6250643;23;20020;-94
2023/04/10 07:49:40;;;;;;;42.90;38.30;;;;;;;12.76;100.00;101399.16;6251190;23;20027;-95
2023/04/10 07:52:08;;;;;;;42.15;37.65;;;;;;;12.57;100.00;101399.97;6252111;23;20035;-94
2023/04/10 08:00:52;;;;;;;42.45;37.95;;;;;;;13.20;100.00;101391.59;6247392;23;20016;-94
2023/04/10 08:12:59;;;;;;;39.28;35.13;;;;;;;13.70;100.00;101392.72;6251053;23;20091;-94
2023/04/10 08:16:01;;;;;;;42.88;37.92;;;;;;;14.76;100.00;101378.00;6253021;23;20024;-94
2023/04/10 08:19:18;;;;;;;40.10;36.00;;;;;;;13.85;100.00;101384.47;6247651;23;20039;-95
2023/04/10 08:25:00;;;;;;;39.15;34.83;;;;;;;13.50;100.00;101381.31;6159344;23;20033;-94
2023/04/10 08:27:29;;;;;;;39.92;35.55;;;;;;;13.50;100.00;101387.47;6158495;23;20032;-94
2023/04/10 08:29:56;;;;;;;43.38;39.03;;;;;;;13.96;100.00;101394.50;6238796;23;20020;-93
2023/04/10 08:32:25;;;;;;;37.22;33.30;;;;;;;13.00;100.00;101384.41;6249361;23;20016;-94
2023/04/10 08:34:53;;;;;;;40.35;35.92;;;;;;;13.10;100.00;101386.66;6250679;23;20015;-94
2023/04/10 08:37:21;;;;;;;41.20;35.03;;;;;;;13.28;100.00;101386.88;6252892;23;20072;-93
2023/04/10 08:40:01;;;;;;;42.60;38.30;;;;;;;13.47;100.00;101385.22;6253194;23;20018;-94
2023/04/10 08:42:30;;;;;;;41.22;37.03;;;;;;;14.35;100.00;101367.81;6253008;23;20050;-95
2023/04/10 08:44:58;;;;;;;43.65;39.35;;;;;;;14.74;100.00;101369.41;6255045;23;20024;-94
2023/04/10 08:47:28;;;;;;;42.03;37.53;;;;;;;14.04;100.00;101363.22;6255252;23;20388;-94
2023/04/10 08:49:58;;;;;;;45.22;40.38;;;;;;;14.98;100.00;101369.66;6253399;23;20016;-93
2023/04/10 08:52:31;;;;;;;44.65;39.28;;;;;;;15.46;100.00;101358.25;6254153;23;20050;-95
2023/04/10 08:55:09;;;;;;;42.65;38.38;;;;;;;14.90;100.00;101362.69;6253815;23;20028;-93
2023/04/10 08:57:41;;;;;;;40.42;36.22;;;;;;;14.67;100.00;101349.91;6256409;23;20020;-94
2023/04/10 09:00:09;;;;;;;41.10;36.72;;;;;;;15.57;100.00;101354.84;6255460;23;20016;-95
2023/04/10 09:02:40;;;;;;;36.58;32.78;;;;;;;14.93;100.00;101343.53;6254746;23;20092;-94
2023/04/10 09:05:11;;;;;;;39.03;34.78;;;;;;;15.52;100.00;101343.97;6253889;23;20027;-94
2023/04/10 09:07:41;;;;;;;42.70;37.10;;;;;;;15.61;100.00;101339.94;6252454;23;20024;-94
2023/04/10 09:10:09;;;;;;;41.88;37.30;;;;;;;15.68;100.00;101334.56;6255699;23;20026;-95
2023/04/10 09:12:47;;;;;;;39.42;35.40;;;;;;;16.14;100.00;101325.09;6256758;23;20034;-94
2023/04/10 09:15:15;;;;;;;39.75;35.58;;;;;;;16.55;100.00;101328.78;6255337;23;20100;-93
2023/04/10 09:17:58;;;;;;;37.22;33.28;;;;;;;15.35;100.00;101325.84;6254160;23;20039;-94
2023/04/10 09:20:27;;;;;;;37.22;33.42;;;;;;;16.19;100.00;101325.25;6253371;23;20022;-93
2023/04/10 09:22:55;;;;;;;32.95;29.65;;;;;;;14.76;100.00;101307.69;6254064;23;20054;-94
2023/04/10 09:25:32;;;;;;;33.03;29.63;;;;;;;14.69;100.00;101314.94;6255180;23;20080;-94
2023/04/10 09:28:06;;;;;;;33.40;30.13;;;;;;;14.85;100.00;101307.19;6257143;23;20027;-94
2023/04/10 09:30:36;;;;;;;37.38;33.70;;;;;;;16.38;100.00;101293.81;6256424;23;20043;-94
2023/04/10 09:33:20;;;;;;;34.78;31.23;;;;;;;16.44;100.00;101293.69;6257320;23;20050;-93
2023/04/10 09:35:47;;;;;;;36.38;32.88;;;;;;;16.42;100.00;101303.03;6255811;23;20016;-94
2023/04/10 09:38:17;;;;;;;31.80;28.83;;;;;;;15.97;100.00;101295.44;6255429;23;20068;-94
2023/04/10 09:40:45;;;;;;;34.08;30.13;;;;;;;15.56;100.00;101299.66;6256638;23;20016;-94
2023/04/10 09:43:23;;;;;;;34.65;31.45;;;;;;;15.89;100.00;101285.88;6256744;23;20036;-95
2023/04/10 09:45:52;;;;;;;35.58;32.17;;;;;;;17.69;100.00;101278.19;6256486;23;20027;-94
2023/04/10 09:48:20;;;;;;;32.30;28.90;;;;;;;16.25;100.00;101270.72;6254843;23;20024;-93
2023/04/10 09:50:47;;;;;;;31.40;28.30;;;;;;;16.38;100.00;101275.06;6253739;23;20019;-94
2023/04/10 09:54:04;;;;;;;31.92;28.85;;;;;;;15.28;100.00;101278.75;6252591;23;20099;-95
2023/04/10 09:57:29;;;;;;;32.92;29.70;;;;;;;16.94;100.00;101281.75;6132827;23;20085;-93
2023/04/10 10:03:58;;;;;;;36.28;32.85;;;;;;;16.16;100.00;101261.38;6135907;23;20033;-94
2023/04/10 10:10:23;;;;;;;33.25;30.05;;;;;;;14.92;100.00;101263.50;6247721;23;20016;-94
2023/04/10 10:19:54;;;;;;;31.95;28.85;;;;;;;14.52;100.00;101253.19;6189911;23;20020;-94
2023/04/10 10:22:55;;;;;;;30.75;27.95;;;;;;;15.58;100.00;101234.13;6257657;23;20143;-93
2023/04/10 10:49:16;;;;;;;31.25;28.45;;;;;;;15.50;100.00;101213.03;6239715;22;20413;-92
2023/04/10 10:52:01;;;;;;;30.63;27.63;;;;;;;14.48;100.00;101206.53;6246457;22;20457;-93
2023/04/10 10:58:17;;;;;;;29.15;26.55;;;;;;;16.14;100.00;101202.63;6242466;22;20024;-92
2023/04/10 11:04:45;;;;;;;32.95;29.77;;;;;;;15.73;100.00;101190.91;6240022;22;20058;-92
2023/04/10 11:17:54;;;;;;;31.38;28.48;;;;;;;14.85;100.00;101196.72;6182873;22;20100;-92
2023/04/10 11:24:12;;;;;;;30.90;28.10;;;;;;;14.91;100.00;101182.47;6236364;22;20056;-91
2023/04/10 11:26:56;;;;;;;31.17;28.33;;;;;;;15.25;100.00;101175.69;6244206;22;20024;-90
2023/04/10 11:29:37;;;;;;;29.73;26.92;;;;;;;15.17;100.00;101184.00;6244106;22;20362;-90
2023/04/10 11:32:04;;;;;;;29.00;26.40;;;;;;;14.78;100.00;101174.59;6243830;22;20016;-92
2023/04/10 11:34:32;;;;;;;29.00;26.50;;;;;;;14.54;100.00;101177.09;6243638;23;20428;-91
2023/04/10 11:37:01;;;;;;;30.05;27.45;;;;;;;15.02;100.00;101173.69;6243507;22;20381;-90
2023/04/10 11:39:29;;;;;;;31.73;28.98;;;;;;;15.41;100.00;101168.88;6243569;22;20039;-91
2023/04/10 11:41:56;;;;;;;28.95;26.45;;;;;;;14.75;100.00;101169.69;6243779;22;20024;-91
2023/04/10 11:44:31;;;;;;;31.45;28.60;;;;;;;14.88;100.00;101162.31;6244188;23;20020;-91
2023/04/10 11:46:59;;;;;;;30.33;27.70;;;;;;;15.35;98.22;101153.72;6242060;22;20020;-92
2023/04/10 11:49:27;;;;;;;28.98;26.58;;;;;;;15.15;100.00;101147.81;6242562;23;20034;-92
2023/04/10 11:51:54;;;;;;;29.20;26.50;;;;;;;14.63;100.00;101154.38;6243458;22;20109;-91
2023/04/10 11:54:23;;;;;;;30.50;27.65;;;;;;;15.89;99.26;101143.09;6243392;22;20074;-91
2023/04/10 11:57:03;;;;;;;30.17;27.50;;;;;;;15.99;97.17;101138.78;6243546;23;20082;-91
2023/04/10 11:59:30;;;;;;;29.33;26.80;;;;;;;16.58;88.88;101135.28;6243175;23;20016;-91
2023/04/10 12:02:06;;;;;;;29.92;27.25;;;;;;;16.45;87.69;101128.28;6243203;22;20024;-89
2023/04/10 12:04:33;;;;;;;30.55;27.95;;;;;;;16.15;88.24;101131.09;6243081;23;20099;-92
2023/04/10 12:07:00;;;;;;;28.25;25.58;;;;;;;15.45;94.51;101119.19;6243935;23;20078;-92
2023/04/10 12:09:27;;;;;;;29.33;26.58;;;;;;;17.13;87.29;101119.53;6243544;22;20461;-92
2023/04/10 12:11:58;;;;;;;28.15;25.50;;;;;;;16.81;78.03;101116.47;6242908;23;20482;-91
2023/04/10 12:14:30;;;;;;;29.73;26.70;;;;;;;16.91;84.89;101113.19;6243214;22;20020;-91
2023/04/10 12:16:57;;;;;;;27.17;24.67;;;;;;;16.25;87.61;101108.03;6243416;22;20096;-91
2023/04/10 12:19:27;;;;;;;27.27;24.92;;;;;;;16.91;78.64;101099.78;6242787;23;20020;-90
2023/04/10 12:21:54;;;;;;;27.52;25.17;;;;;;;16.51;77.52;101095.19;6242453;23;20413;-92
2023/04/10 12:24:43;;;;;;;26.77;24.42;;;;;;;16.07;79.65;101089.41;6243247;23;20027;-91
2023/04/10 12:27:17;;;;;;;28.67;25.98;;;;;;;15.47;89.27;101086.88;6243085;22;20039;-90
2023/04/10 12:29:44;;;;;;;31.85;29.15;;;;;;;15.56;89.43;101086.28;6242900;23;20077;-91
2023/04/10 12:32:11;;;;;;;29.48;26.88;;;;;;;17.12;82.31;101084.88;6242941;23;20481;-92
2023/04/10 12:34:40;;;;;;;28.35;25.95;;;;;;;15.83;80.13;101080.56;6242506;22;20373;-92
2023/04/10 12:37:08;;;;;;;27.17;24.67;;;;;;;15.28;89.34;101076.22;6242959;22;20023;-90
2023/04/10 12:39:35;;;;;;;29.63;27.23;;;;;;;16.83;70.74;101066.09;6242938;22;20039;-92
2023/04/10 12:42:12;;;;;;;27.38;24.90;;;;;;;16.54;76.07;101067.09;6242733;23;20031;-92
2023/04/10 12:44:50;;;;;;;27.20;24.73;;;;;;;15.03;90.01;101078.22;6243052;23;20044;-91
2023/04/10 12:47:17;;;;;;;25.50;23.23;;;;;;;14.99;89.18;101075.19;6242897;22;20062;-92
2023/04/10 12:50:07;;;;;;;26.55;24.23;;;;;;;15.61;79.44;101071.38;6242988;23;20016;-92
2023/04/10 12:52:34;;;;;;;26.42;24.20;;;;;;;15.81;76.19;101066.56;6243211;22;20020;-92
2023/04/10 12:55:13;;;;;;;24.63;22.45;;;;;;;15.63;78.84;101078.16;6242700;23;20028;-91
2023/04/10 12:57:43;;;;;;;26.13;23.80;;;;;;;15.54;82.81;101075.00;6242507;23;20024;-92
2023/04/10 13:00:12;;;;;;;26.67;24.33;;;;;;;15.64;87.30;101060.22;6242200;22;20023;-91
2023/04/10 13:02:40;;;;;;;27.70;25.02;;;;;;;14.41;100.00;101064.97;6242280;23;20103;-92
2023/04/10 13:05:09;;;;;;;27.15;24.75;;;;;;;15.35;88.14;101054.72;6242707;23;20024;-91
2023/04/10 13:07:37;;;;;;;26.45;24.00;;;;;;;15.53;85.58;101054.63;6242570;23;20020;-91
2023/04/10 13:10:06;;;;;;;25.77;23.58;;;;;;;15.76;83.03;101053.03;6242189;23;20079;-92